CheckWX is a tool to help pilots better visualize weather data.  It is not intended as a substitute for an official pre-flight weather briefing.

19:46:08 UTC

KDVL TAF
Devils Lake Regional Airport
Devils Lake, North Dakota, USA
KDVL 191728Z 1918/2018 26015G20KT P6SM FEW070 FM200100 VRB05KT P6SM SCT150

Oct-19@
18:00 UTC

Oct-19 @ 18:00 UTC

Oct-20@
01:00 UTC

Oct-20 @ 01:00 UTC

KDVL 191728Z 1918/2018 26015G20KT P6SM FEW070
Wind
  • 260° at 15 KTS
  • {Gusting to 20 KTS
Cloud Levels
  • Few at 7,000' AGL

Oct-20@
01:00 UTC

Oct-20 @ 01:00 UTC

Oct-20@
18:00 UTC

Oct-20 @ 18:00 UTC

FM200100 VRB05KT P6SM SCT150

From

From Standard forecast or significant change

Wind
  • Variable at 5 KTS
Cloud Levels
  • Scattered at 15,000' AGL